Terminal Aerodrome Forecast
Issued by NWS

Home | Current Version | Previous Version | Graphics & Text | Print | Product List | Glossary Off
Versions: 1 2 3 4 5 6 7 8 9 10 11 12 13

000
FTUS43 KTOP 071739
TAFMHK
TAF
KMHK 071739Z 0718/0818 31013KT P6SM BKN150
     FM072000 30016G24KT P6SM SCT090
     FM080000 31013G20KT P6SM BKN060
     FM080800 31014G22KT P6SM SCT020 OVC035
     FM081500 32017G27KT P6SM FEW030=

USA.gov is the U.S. government's official web portal to all federal, state and local government web resources and services.